西安 の空港の天気 - METARとTAF

西安咸陽国際空港 ( ZLXY / XIY ) - 中国 陝西省西安市
飛行場実況気象(Metar)
観測時間07/18 13:00 CST (07/18 05:00 UTC)
風向・風速東南東 3m/s
視程10km以上
天気現象
なし
気温37℃
湿度45%
気圧1001hPa
METARZLXY 180500Z 11003MPS 050V190 CAVOK 37/23 Q1001 NOSIG
過去の天気等 Google飛行場航空写真 Wunderground天気予報

過去48時間のMETAR

飛行場予報(TAF)
発表時間: 7/18 03:05 CST (7/17 19:05 UTC)
予報対象時間: 18日8時 CST ~ 19日8時 CST
風向・風速東北東 4m/s
視程6000m
なし
TAF ZLXY 171905Z 1800/1824 06004MPS 6000 NSC TX38/1808Z TN26/1822Z